createdAt,value
2022-08-31T10:35:56.973Z,1012.23
2022-08-31T10:36:56.959Z,1012.21
2022-08-31T10:37:56.942Z,1012.20
2022-08-31T10:38:56.925Z,1012.23
2022-08-31T10:39:56.908Z,1012.22
2022-08-31T10:40:56.898Z,1012.21
2022-08-31T10:41:56.879Z,1012.26
2022-08-31T10:42:56.859Z,1012.20
2022-08-31T10:43:56.843Z,1012.23
2022-08-31T10:44:56.846Z,1012.18
2022-08-31T10:45:56.858Z,1012.23
2022-08-31T10:46:56.807Z,1012.24
2022-08-31T10:47:56.789Z,1012.23
2022-08-31T10:48:56.779Z,1012.26
2022-08-31T10:49:56.759Z,1012.24
2022-08-31T10:50:56.768Z,1012.24
2022-08-31T10:51:56.751Z,1012.24
2022-08-31T10:53:01.841Z,1012.20
2022-08-31T10:53:56.711Z,1012.23
2022-08-31T10:54:56.692Z,1012.24
2022-08-31T10:55:56.691Z,1012.24
2022-08-31T10:56:56.670Z,1012.22
2022-08-31T10:57:56.650Z,1012.23
2022-08-31T10:58:56.637Z,1012.17
2022-08-31T10:59:56.626Z,1012.14
2022-08-31T11:00:56.667Z,1012.16
2022-08-31T11:01:56.610Z,1012.14
2022-08-31T11:02:56.586Z,1012.14
2022-08-31T11:03:56.587Z,1012.15
2022-08-31T11:04:56.624Z,1012.12
2022-08-31T11:05:56.593Z,1012.20
2022-08-31T11:06:56.536Z,1012.15
2022-08-31T11:07:56.550Z,1012.16
2022-08-31T11:08:56.518Z,1012.14
2022-08-31T11:09:56.497Z,1012.17
2022-08-31T11:10:56.492Z,1012.15
2022-08-31T11:11:56.490Z,1012.12
2022-08-31T11:12:57.593Z,1012.13
2022-08-31T11:13:56.450Z,1012.17
2022-08-31T11:14:56.447Z,1012.23
2022-08-31T11:15:56.471Z,1012.24
2022-08-31T11:16:56.429Z,1012.21
2022-08-31T11:17:56.391Z,1012.23
2022-08-31T11:18:56.385Z,1012.21
2022-08-31T11:19:56.379Z,1012.19
2022-08-31T11:20:56.354Z,1012.19
2022-08-31T11:21:56.356Z,1012.20
2022-08-31T11:22:56.328Z,1012.20
2022-08-31T11:23:56.328Z,1012.20
2022-08-31T11:24:56.305Z,1012.20
2022-08-31T11:25:56.293Z,1012.21
2022-08-31T11:26:56.298Z,1012.22
2022-08-31T11:27:56.270Z,1012.21
2022-08-31T11:28:56.257Z,1012.18
2022-08-31T11:29:56.234Z,1012.25
2022-08-31T11:30:56.327Z,1012.22
2022-08-31T11:31:56.227Z,1012.23
2022-08-31T11:32:56.198Z,1012.20
2022-08-31T11:34:15.055Z,1012.20
2022-08-31T11:34:56.172Z,1012.21
2022-08-31T11:35:56.170Z,1012.17
2022-08-31T11:36:56.163Z,1012.19
2022-08-31T11:37:56.231Z,1012.19
2022-08-31T11:38:56.129Z,1012.18
2022-08-31T11:39:56.120Z,1012.15
2022-08-31T11:40:56.099Z,1012.08
2022-08-31T11:41:56.164Z,1012.06
2022-08-31T11:42:56.075Z,1012.07
2022-08-31T11:43:56.055Z,1012.05
2022-08-31T11:44:56.041Z,1012.07
2022-08-31T11:45:56.107Z,1012.07
2022-08-31T11:46:56.028Z,1012.08
2022-08-31T11:47:56.014Z,1012.05
2022-08-31T11:48:56.005Z,1012.01
2022-08-31T11:49:55.979Z,1012.02
2022-08-31T11:50:55.970Z,1012.03
2022-08-31T11:51:55.965Z,1011.98
2022-08-31T11:52:55.946Z,1011.99
2022-08-31T11:53:55.936Z,1012.02
2022-08-31T11:54:55.925Z,1011.96
2022-08-31T11:55:55.913Z,1011.96
2022-08-31T11:56:55.911Z,1011.96
2022-08-31T11:57:55.875Z,1011.93
2022-08-31T11:58:55.863Z,1011.96
2022-08-31T11:59:55.853Z,1011.99
2022-08-31T12:00:55.851Z,1012.01
2022-08-31T12:01:55.851Z,1011.98
2022-08-31T12:02:55.859Z,1011.98
2022-08-31T12:03:55.800Z,1011.96
2022-08-31T12:04:55.836Z,1011.91
2022-08-31T12:05:55.785Z,1011.91
2022-08-31T12:06:55.776Z,1011.93
2022-08-31T12:07:55.758Z,1011.93
2022-08-31T12:08:55.737Z,1011.90
2022-08-31T12:09:55.725Z,1011.93
2022-08-31T12:10:55.721Z,1011.89
2022-08-31T12:11:55.724Z,1011.89
2022-08-31T12:12:55.698Z,1011.90
2022-08-31T12:13:55.689Z,1011.90
2022-08-31T12:14:55.666Z,1011.89
2022-08-31T12:15:55.685Z,1011.91
2022-08-31T12:16:55.653Z,1011.86
2022-08-31T12:17:55.637Z,1011.84
2022-08-31T12:18:55.614Z,1011.85
2022-08-31T12:19:59.116Z,1011.85
2022-08-31T12:20:55.597Z,1011.81
2022-08-31T12:21:55.589Z,1011.81
2022-08-31T12:22:55.575Z,1011.80
2022-08-31T12:23:55.556Z,1011.76
2022-08-31T12:24:55.553Z,1011.74
2022-08-31T12:25:55.542Z,1011.73
2022-08-31T12:26:55.529Z,1011.72
2022-08-31T12:27:55.506Z,1011.72
2022-08-31T12:28:55.493Z,1011.65
2022-08-31T12:33:27.162Z,1011.63
2022-08-31T12:34:27.121Z,1011.62
2022-08-31T12:35:27.098Z,1011.60
2022-08-31T12:36:27.100Z,1011.73
2022-08-31T12:37:27.079Z,1011.65
2022-08-31T12:38:27.066Z,1011.70
2022-08-31T12:39:27.060Z,1011.59
2022-08-31T12:40:27.110Z,1011.59
2022-08-31T12:41:27.042Z,1011.63
2022-08-31T12:42:27.036Z,1011.60
2022-08-31T12:43:27.013Z,1011.73
2022-08-31T12:44:26.989Z,1011.61
2022-08-31T12:45:26.976Z,1011.70
2022-08-31T12:46:27.034Z,1011.71
2022-08-31T12:47:26.953Z,1011.70
2022-08-31T12:48:26.950Z,1011.68
2022-08-31T12:49:26.945Z,1011.65
2022-08-31T12:50:26.918Z,1011.65
2022-08-31T12:51:26.916Z,1011.66
2022-08-31T12:52:26.896Z,1011.64
2022-08-31T12:53:26.890Z,1011.59
2022-08-31T12:54:26.871Z,1011.54
2022-08-31T12:55:26.859Z,1011.54
2022-08-31T12:56:26.872Z,1011.53
2022-08-31T12:57:27.125Z,1011.51
2022-08-31T12:58:26.832Z,1011.49
2022-08-31T12:59:40.717Z,1011.49
2022-08-31T13:00:26.808Z,1011.48
2022-08-31T13:01:26.927Z,1011.44
2022-08-31T13:02:27.023Z,1011.43
2022-08-31T13:03:26.774Z,1011.54
2022-08-31T13:04:26.772Z,1011.56
2022-08-31T13:05:26.761Z,1011.51
2022-08-31T13:06:26.748Z,1011.54
2022-08-31T13:07:26.741Z,1011.55
2022-08-31T13:08:26.718Z,1011.54
2022-08-31T13:09:26.718Z,1011.55
2022-08-31T13:10:26.697Z,1011.52
2022-08-31T13:11:33.109Z,1011.52
2022-08-31T13:12:26.685Z,1011.42
2022-08-31T13:13:26.664Z,1011.35
2022-08-31T13:36:47.753Z,1011.25
2022-08-31T13:37:47.731Z,1011.32
2022-08-31T13:38:47.727Z,1011.29
2022-08-31T13:39:47.704Z,1011.33
2022-08-31T13:40:47.739Z,1011.35
2022-08-31T13:41:47.702Z,1011.36
2022-08-31T13:42:47.675Z,1011.36
2022-08-31T13:43:47.654Z,1011.34
2022-08-31T13:44:47.649Z,1011.35
2022-08-31T13:45:47.684Z,1011.35
2022-08-31T13:46:47.669Z,1011.34
2022-08-31T13:47:57.059Z,1011.31
2022-08-31T13:48:47.606Z,1011.35
2022-08-31T13:49:47.598Z,1011.27
2022-08-31T13:50:51.919Z,1011.24
2022-08-31T13:51:47.586Z,1011.23
2022-08-31T13:52:59.513Z,1011.23
2022-08-31T13:53:47.554Z,1011.26
2022-08-31T13:54:47.542Z,1011.19
2022-08-31T13:55:47.529Z,1011.20
2022-08-31T13:56:47.534Z,1011.14
2022-08-31T13:57:47.527Z,1011.19
2022-08-31T13:58:47.493Z,1011.24
2022-08-31T13:59:47.487Z,1011.22
2022-08-31T14:00:47.590Z,1011.20
2022-08-31T14:01:47.493Z,1011.24
2022-08-31T14:02:47.509Z,1011.19
2022-08-31T14:03:47.454Z,1011.21
2022-08-31T14:04:47.451Z,1011.17
2022-08-31T14:05:47.442Z,1011.18
2022-08-31T14:06:47.448Z,1011.14
2022-08-31T14:07:47.431Z,1011.18
2022-08-31T14:08:47.415Z,1011.14
2022-08-31T14:09:47.404Z,1011.16
2022-08-31T14:10:47.394Z,1011.18
2022-08-31T14:11:47.407Z,1011.17
2022-08-31T14:12:47.389Z,1011.18
2022-08-31T14:13:47.366Z,1011.13
2022-08-31T14:14:47.361Z,1011.25
2022-08-31T14:15:47.364Z,1011.24
2022-08-31T14:16:52.339Z,1011.26
2022-08-31T14:18:24.027Z,1011.25
2022-08-31T14:18:47.345Z,1011.21
2022-08-31T14:19:47.336Z,1011.30
2022-08-31T14:21:10.246Z,1011.25
2022-08-31T14:21:47.315Z,1011.27
2022-08-31T14:22:47.324Z,1011.24
2022-08-31T14:23:47.299Z,1011.25
2022-08-31T14:24:47.302Z,1011.26
2022-08-31T14:25:47.285Z,1011.25
2022-08-31T14:26:47.277Z,1011.21
2022-08-31T14:27:47.278Z,1011.14
2022-08-31T14:28:47.262Z,1011.05
2022-08-31T14:29:47.272Z,1011.02
2022-08-31T14:30:47.293Z,1011.03
2022-08-31T14:31:47.248Z,1010.99
2022-08-31T14:32:47.261Z,1010.98
2022-08-31T14:33:47.235Z,1010.93
2022-08-31T14:34:47.238Z,1010.96
2022-08-31T14:35:47.221Z,1010.97
2022-08-31T14:36:47.281Z,1010.97
2022-08-31T14:37:47.217Z,1010.82
2022-08-31T14:38:47.202Z,1010.80
2022-08-31T14:44:51.916Z,1010.72
2022-08-31T14:45:51.926Z,1010.76
2022-08-31T14:46:51.914Z,1010.72
2022-08-31T14:47:51.898Z,1010.69
2022-08-31T14:48:51.873Z,1010.66
2022-08-31T14:49:51.863Z,1010.68
2022-08-31T14:52:10.319Z,1010.63
2022-08-31T15:41:24.916Z,1010.91
2022-08-31T15:42:24.911Z,1011.02
2022-08-31T16:00:22.469Z,1010.86
2022-08-31T16:01:22.552Z,1010.87
2022-08-31T16:02:22.482Z,1010.87
2022-08-31T16:03:22.420Z,1010.82
2022-08-31T16:04:22.410Z,1010.75
2022-08-31T16:05:22.407Z,1010.70
2022-08-31T16:06:22.405Z,1010.63
2022-08-31T16:09:15.420Z,1010.58
2022-08-31T16:10:19.753Z,1010.60
